Terminal Aerodrome Forecast
Issued by NWS

Home | Current Version | Previous Version | Text Only | Print | Product List | Glossary On
Versions: 1 2 3 4 5 6 7 8 9 10 11 12 13 14 15 16 17
000
FTUS43 KOAX 270003 RRA
TAFSNY
TAF
KSNY 270003Z 2700/2724 33022G33KT P6SM BKN080 OVC100
     FM270200 02008KT P6SM SCT050 BKN100
     FM271000 24008KT P6SM BKN050
     FM271500 30020G31KT P6SM BKN200=

USA.gov is the U.S. government's official web portal to all federal, state and local government web resources and services.